Latest Coastal Weather Observations for Troughton Island

IDD60701

Issued at 10:11 am CST Wednesday 29 July 2015 (issued every 10 minutes, with the page automatically refreshed every 10 minutes)

About coastal observations | Map of coastal stations | Coastal observations for NT | Marine services | Other Formats
Station Details ID: 001007 Name: TROUGHTON ISLAND Lat: -13.75 Lon: 126.15 Height: 6.0 m
Data from the previous 72 hours. | See also: Recent months at Troughton Island
Date/Time
CST
Temp

°C
Wind Pressure Rain
since 9am
mm
Weather Cloud Vis
km
Sea
Height
m
Swell
Dir
 
Speed
knots
Gust
knots
hPa Trend Height
m
Period
s
Dir
29/10:02am 26.5 ESE 21 25 1019.6 - 0.0 - - - - - - -
29/09:32am 26.0 ESE 22 27 1019.5 - 0.0 - - - - - - -
29/09:02am 25.6 ESE 21 25 1019.1 - 0.0 - - - - - - -
29/08:32am 25.1 ESE 23 28 1018.7 - 0.0 - - - - - - -
29/08:02am 24.7 ESE 21 26 1018.3 - 0.0 - - - - - - -
29/07:32am 24.5 ESE 22 26 1017.9 - 0.0 - - - - - - -
29/07:30am 24.5 ESE 22 - 1017.8 - - - - - - - - -
29/07:02am 24.5 ESE 20 25 1017.5 - 0.0 - - - - - - -
29/06:32am 24.6 ESE 19 23 1017.3 - 0.0 - - - - - - -
29/06:02am 24.7 ESE 19 23 1017.1 - 0.0 - - - - - - -
29/05:32am 24.8 ESE 19 24 1016.9 - 0.0 - - - - - - -
29/05:02am 24.8 ESE 18 21 1017.0 - 0.0 - - - - - - -
29/04:32am 24.8 ESE 15 19 1016.8 - 0.0 - - - - - - -
29/04:30am 24.8 ESE 15 - 1016.7 - 0.0 - - - - - - -
29/04:02am 24.7 ESE 15 17 1016.9 - 0.0 - - - - - - -
29/03:32am 24.8 SE 14 16 1017.2 - 0.0 - - - - - - -
29/03:02am 24.8 ESE 14 17 1017.5 - 0.0 - - - - - - -
29/02:32am 24.7 ESE 14 16 1017.7 - 0.0 - - - - - - -
29/02:02am 24.6 ESE 13 16 1017.9 - 0.0 - - - - - - -
29/01:32am 24.8 ESE 12 16 1018.1 - 0.0 - - - - - - -
29/01:30am 24.8 ESE 12 13 1018.0 - - - - - - - - -
29/01:02am 24.8 ESE 11 13 1018.2 - 0.0 - - - - - - -
29/12:32am 24.8 E 10 13 1018.3 - 0.0 - - - - - - -
29/12:02am 25.0 E 10 13 1018.4 - 0.0 - - - - - - -
 
Date/Time
CST
Temp

°C
Wind Pressure Rain
since 9am
mm
Weather Cloud Vis
km
Sea
Height
m
Swell
Dir
 
Speed
knots
Gust
knots
hPa Trend Height
m
Period
s
Dir
28/11:32pm 25.1 E 12 15 1018.5 - 0.0 - - - - - - -
28/11:02pm 25.2 E 13 16 1018.5 - 0.0 - - - - - - -
28/10:32pm 25.0 ENE 14 16 1018.5 - 0.0 - - - - - - -
28/10:30pm 25.0 ENE 14 - 1018.4 - 0.0 - - - - - - -
28/10:02pm 25.0 ENE 14 17 1018.3 - 0.0 - - - - - - -
28/09:32pm 25.1 ENE 14 16 1018.1 - 0.0 - - - - - - -
28/09:02pm 25.1 ENE 14 17 1017.8 - 0.0 - - - - - - -
28/08:32pm 25.2 ENE 16 19 1017.5 - 0.0 - - - - - - -
28/08:02pm 25.3 NE 15 19 1017.2 - 0.0 - - - - - - -
28/07:32pm 25.1 NE 15 21 1017.0 - 0.0 - - - - - - -
28/07:30pm 25.1 NE 15 - 1016.9 - - - - - - - - -
28/07:02pm 25.3 NE 16 20 1016.7 - 0.0 - - - - - - -
28/05:32pm 26.3 NE 15 19 1016.0 - 0.0 - - - - - - -
28/05:02pm 26.8 NE 14 18 1015.8 - 0.0 - - - - - - -
28/04:32pm 26.9 ENE 15 19 1015.8 - 0.0 - - - - - - -
28/04:30pm 26.9 ENE 15 - 1015.7 - 0.0 - - - - - - -
28/04:02pm 27.1 ENE 16 19 1016.0 - 0.0 - - - - - - -
28/03:32pm 27.6 ENE 15 18 1016.3 - 0.0 - - - - - - -
28/03:02pm 27.3 ENE 15 18 1016.7 - 0.0 - - - - - - -
28/02:32pm 27.4 ENE 16 20 1017.1 - 0.0 - - - - - - -
28/02:02pm 27.6 ENE 15 18 1017.5 - 0.0 - - - - - - -
28/01:32pm 27.8 ENE 14 17 1018.2 - 0.0 - - - - - - -
28/01:30pm 27.6 E 14 - 1018.1 - - - - - - - - -
28/01:02pm 28.3 E 13 17 1018.7 - 0.0 - - - - - - -
28/12:32pm 28.3 E 16 19 1019.0 - 0.0 - - - - - - -
28/12:02pm 27.7 E 16 20 1019.4 - 0.0 - - - - - - -
28/11:32am 27.3 E 17 22 1019.6 - 0.0 - - - - - - -
28/11:02am 27.8 E 19 23 1019.8 - 0.0 - - - - - - -
28/10:32am 26.5 E 21 26 1020.0 - 0.0 - - - - - - -
28/10:30am 26.5 E 21 - 1019.9 - 0.0 - - - - - - -
28/10:02am 26.2 E 21 26 1019.7 - 0.0 - - - - - - -
28/09:32am 26.3 E 23 28 1019.3 - 0.0 - - - - - - -
28/09:02am 26.1 E 20 26 1018.9 - 0.0 - - - - - - -
28/08:32am 25.9 E 19 24 1018.6 - 0.0 - - - - - - -
28/08:02am 25.6 E 19 24 1018.3 - 0.0 - - - - - - -
28/07:32am 25.2 E 17 21 1017.9 - 0.0 - - - - - - -
28/07:30am 25.2 E 17 - 1017.8 - - - - - - - - -
28/07:02am 25.3 E 16 21 1017.4 - 0.0 - - - - - - -
28/06:32am 25.4 ESE 17 20 1017.2 - 0.0 - - - - - - -
28/06:02am 25.0 ESE 14 16 1017.0 - 0.0 - - - - - - -
28/05:32am 24.8 ESE 12 14 1016.8 - 0.0 - - - - - - -
28/05:02am 24.3 ESE 9 11 1016.6 - 0.0 - - - - - - -
28/04:32am 23.3 SE 7 9 1016.5 - 0.0 - - - - - - -
28/04:30am 23.3 SE 7 - 1016.4 - 0.0 - - - - - - -
28/04:02am 22.8 SSE 6 7 1016.5 - 0.0 - - - - - - -
28/03:32am 23.2 S 5 6 1016.8 - 0.0 - - - - - - -
28/03:02am 24.1 S 6 7 1016.9 - 0.0 - - - - - - -
28/02:32am 24.0 S 6 6 1016.9 - 0.0 - - - - - - -
28/02:02am 24.0 S 6 6 1017.1 - 0.0 - - - - - - -
28/01:32am 24.2 S 7 7 1017.3 - 0.0 - - - - - - -
28/01:30am 24.2 S 6 - 1017.2 - - - - - - - - -
28/01:02am 23.6 S 6 6 1017.4 - 0.0 - - - - - - -
28/12:32am 23.7 S 5 5 1017.3 - 0.0 - - - - - - -
28/12:02am 23.8 ESE 4 5 1017.3 - 0.0 - - - - - - -
 
Date/Time
CST
Temp

°C
Wind Pressure Rain
since 9am
mm
Weather Cloud Vis
km
Sea
Height
m
Swell
Dir
 
Speed
knots
Gust
knots
hPa Trend Height
m
Period
s
Dir
27/11:32pm 24.9 ENE 4 5 1017.4 - 0.0 - - - - - - -
27/11:02pm 25.1 NE 6 7 1017.4 - 0.0 - - - - - - -
27/10:32pm 25.4 NE 8 9 1017.2 - 0.0 - - - - - - -
27/10:30pm 25.3 NE 8 - 1017.1 - 0.0 - - - - - - -
27/10:02pm 25.3 NE 9 11 1017.1 - 0.0 - - - - - - -
27/09:32pm 25.4 NE 11 13 1017.0 - 0.0 - - - - - - -
27/09:02pm 25.6 NE 11 14 1017.0 - 0.0 - - - - - - -
27/08:32pm 25.5 NE 10 13 1016.8 - 0.0 - - - - - - -
27/08:02pm 25.5 NE 10 11 1016.6 - 0.0 - - - - - - -
27/07:32pm 25.8 NNE 10 13 1016.2 - 0.0 - - - - - - -
27/07:30pm 25.8 NNE 11 - 1016.0 - - - - - - - - -
27/07:02pm 25.9 NNE 11 13 1015.8 - 0.0 - - - - - - -
27/06:32pm 26.3 NE 11 13 1015.5 - 0.0 - - - - - - -
27/06:02pm 27.1 NE 12 14 1015.2 - 0.0 - - - - - - -
27/05:32pm 27.5 NE 13 16 1015.1 - 0.0 - - - - - - -
27/05:02pm 28.3 NE 13 17 1015.0 - 0.0 - - - - - - -
27/04:32pm 29.5 NNE 13 16 1014.8 - 0.0 - - - - - - -
27/04:30pm 28.9 NNE 13 - 1014.7 - 0.0 - - - - - - -
27/04:02pm 29.1 NE 8 10 1014.8 - 0.0 - - - - - - -
27/03:32pm 29.8 NE 7 8 1015.0 - 0.0 - - - - - - -
27/03:02pm 29.3 NNE 7 8 1015.3 - 0.0 - - - - - - -
27/02:32pm 29.2 NE 7 9 1015.6 - 0.0 - - - - - - -
27/02:02pm 29.4 NNE 6 8 1015.9 - 0.0 - - - - - - -
27/01:32pm 29.8 NNE 6 7 1016.2 - 0.0 - - - - - - -
27/01:30pm 29.6 NNE 6 - 1016.2 - - - - - - - - -
27/01:02pm 28.8 NE 6 8 1016.7 - 0.0 - - - - - - -
27/12:32pm 29.1 E 6 7 1017.1 - 0.0 - - - - - - -
27/12:02pm 29.2 E 6 7 1017.5 - 0.0 - - - - - - -
27/11:32am 28.6 SE 8 9 1018.0 - 0.0 - - - - - - -
27/11:02am 27.1 SSE 9 10 1018.1 - 0.0 - - - - - - -
27/10:32am 26.8 SE 9 11 1018.3 - 0.0 - - - - - - -
27/10:30am 27.2 SE 9 - 1018.2 - 0.0 - - - - - - -
27/10:02am 26.4 SE 10 12 1018.3 - 0.0 - - - - - - -
27/09:32am 25.9 SE 10 11 1018.3 - 0.0 - - - - - - -
27/09:02am 25.2 SE 9 11 1018.2 - 0.0 - - - - - - -
27/08:32am 24.3 SE 7 9 1018.0 - 0.0 - - - - - - -
27/08:02am 23.4 SSE 6 7 1017.5 - 0.0 - - - - - - -
27/07:32am 23.0 SSE 6 7 1017.2 - 0.0 - - - - - - -
27/07:30am 23.0 SSE 6 - 1017.1 - - - - - - - - -
27/07:02am 22.7 SSE 5 6 1017.0 - 0.0 - - - - - - -
27/06:32am 22.6 SSE 5 5 1016.9 - 0.0 - - - - - - -
27/06:02am 23.2 SSW 4 5 1016.8 - 0.0 - - - - - - -
27/05:32am 23.4 SSW 5 5 1016.6 - 0.0 - - - - - - -
27/05:02am 23.5 S 4 5 1016.4 - 0.0 - - - - - - -
27/04:32am 23.7 SSW 5 6 1016.4 - 0.0 - - - - - - -
27/04:30am 23.7 SSW 5 - 1016.3 - 0.0 - - - - - - -
27/04:02am 23.6 SW 5 5 1016.6 - 0.0 - - - - - - -
27/03:32am 23.5 WSW 4 5 1016.7 - 0.0 - - - - - - -
27/03:02am 23.5 WSW 5 5 1017.0 - 0.0 - - - - - - -
27/02:32am 23.1 W 4 5 1017.1 - 0.0 - - - - - - -
27/02:02am 23.8 WSW 4 5 1017.5 - 0.0 - - - - - - -
27/01:32am 23.9 W 5 5 1017.7 - 0.0 - - - - - - -
27/01:30am 23.8 W 5 - 1017.7 - - - - - - - - -
27/01:02am 23.8 WNW 5 6 1018.0 - 0.0 - - - - - - -
27/12:32am 23.2 NW 5 5 1018.1 - 0.0 - - - - - - -
27/12:02am 23.4 NW 4 5 1018.4 - 0.0 - - - - - - -
 
Date/Time
CST
Temp

°C
Wind Pressure Rain
since 9am
mm
Weather Cloud Vis
km
Sea
Height
m
Swell
Dir
 
Speed
knots
Gust
knots
hPa Trend Height
m
Period
s
Dir
26/11:32pm 23.7 N 4 5 1018.5 - 0.0 - - - - - - -
26/11:02pm 24.3 N 3 4 1018.6 - 0.0 - - - - - - -
26/10:32pm 24.7 N 8 9 1018.3 - 0.0 - - - - - - -
26/10:30pm 24.7 N 8 - 1018.2 - 0.0 - - - - - - -
26/10:02pm 24.8 N 6 7 1018.3 - 0.0 - - - - - - -
26/09:32pm 24.8 N 5 6 1018.3 - 0.0 - - - - - - -
26/09:02pm 25.1 N 6 7 1018.0 - 0.0 - - - - - - -
26/08:32pm 25.0 N 6 7 1017.5 - 0.0 - - - - - - -
26/08:02pm 25.2 N 5 7 1017.2 - 0.0 - - - - - - -
26/07:32pm 25.2 N 6 8 1016.8 - 0.0 - - - - - - -
26/07:30pm 25.3 N 6 - 1016.6 - - - - - - - - -
26/07:02pm 25.7 N 6 8 1016.4 - 0.0 - - - - - - -
26/06:32pm 26.1 N 7 9 1015.9 - 0.0 - - - - - - -
26/06:02pm 26.2 N 8 10 1015.3 - 0.0 - - - - - - -
26/05:32pm 27.1 N 9 12 1015.0 - 0.0 - - - - - - -
26/05:02pm 27.0 N 11 14 1014.9 - 0.0 - - - - - - -
26/04:32pm 27.4 N 13 15 1014.9 - 0.0 - - - - - - -
26/04:30pm 28.4 N 12 - 1014.8 - 0.0 - - - - - - -
26/04:02pm 28.0 N 11 13 1014.9 - 0.0 - - - - - - -
26/03:32pm 28.0 N 9 12 1014.9 - 0.0 - - - - - - -
26/03:02pm 29.3 NNW 7 9 1015.0 - 0.0 - - - - - - -
26/02:32pm 29.0 W 8 10 1015.1 - 0.0 - - - - - - -
26/02:02pm 29.2 WSW 10 11 1015.3 - 0.0 - - - - - - -
26/01:32pm 28.9 WSW 9 11 1015.6 - 0.0 - - - - - - -
26/01:30pm 28.9 WSW 10 - 1015.5 - - - - - - - - -
26/01:02pm 29.0 WSW 10 12 1016.0 - 0.0 - - - - - - -
26/12:32pm 28.7 WSW 10 12 1016.3 - 0.0 - - - - - - -
26/12:02pm 28.1 WSW 9 11 1016.7 - 0.0 - - - - - - -

Other Formats:

Comma delimited format used in spreadsheet applications
http://www.bom.gov.au/fwo/IDD60701/IDD60701.94102.axf

JavaScript Object Notation format (JSON) in row-major order
http://www.bom.gov.au/fwo/IDD60701/IDD60701.94102.json